• Join FlightAware (Why Join?)
  • Login
  • US Flag 
07:53PM EDT


 

Airport Tracker/Info


-or-


 

Live Flight TrackerFlight Track Log ✈ PDT4480 ✈ 20-Apr-2013 ✈ KPHL - KISP

Flight Track Log - Related Links

Times and Time Zones

All times are in EDT time to prevent confusion due to time zone crossing. See the PDT4480 flight status page for this flight to view local times or setup timezone preferences in your user account.

Time Position Orientation Groundspeed Altitude Reporting Facility
EDT Latitude Longitude Course Direction KTS MPH feet Rate Location/Type
03:00PM 39.8667 -75.2667 84° East 110 127 800  Level Philadelphia TRACON
03:00PM 39.8456 -75.2761 199° South 134 154 1,400 1,260 Climbing FAA TRACON SMA TRACON (SMA)
03:01PM 39.8328 -75.2808 196° South 147 169 1,900 1,620 Climbing FAA TRACON SMA TRACON (SMA)
03:01PM 39.8206 -75.2853 196° South 149 171 2,500 1,800 Climbing FAA TRACON SMA TRACON (SMA)
03:01PM 39.8058 -75.2908 196° South 147 169 3,100 1,500 Climbing FAA TRACON SMA TRACON (SMA)
03:02PM 39.8167 -74.9066 90° East  Level FlightAware Approximate
03:02PM 39.7925 -75.2939 190° South 150 173 3,500  Level FAA TRACON SMA TRACON (SMA)
03:02PM 39.7800 -75.2981 194° South 151 174 4,000 1,500 Climbing FAA TRACON SMA TRACON (SMA)
03:02PM 39.7672 -75.3022 194° South 152 175 4,500 1,500 Climbing FAA TRACON SMA TRACON (SMA)
03:03PM 39.8000 -74.7971 90° East  Level FlightAware Approximate
03:03PM 39.7386 -75.3114 194° South 153 176 5,500  Level FAA TRACON SMA TRACON (SMA)
03:03PM 39.7258 -75.3086 171° South 167 192 6,000 1,500 Climbing FAA TRACON SMA TRACON (SMA)
03:04PM 39.7859 -74.6869 75° East  Level FlightAware Approximate
03:04PM 39.7186 -75.2869 113° Southeast 168 193 6,500  Level FAA TRACON SMA TRACON (SMA)
03:04PM 39.7239 -75.2692 69° East 178 205 6,800 1,200 Climbing FAA TRACON SMA TRACON (SMA)
03:04PM 39.7269 -75.2483 79° East 183 211 7,300 1,500 Climbing FAA TRACON SMA TRACON (SMA)
03:05PM 39.8035 -74.5755 84° East  Level FlightAware Approximate
03:05PM 39.7275 -75.2233 88° East 186 214 7,800  Level FAA TRACON SMA TRACON (SMA)
03:05PM 39.7281 -75.2014 88° East 196 226 8,000 1,020 Climbing FAA TRACON SMA TRACON (SMA)
03:05PM 39.7292 -75.1775 87° East 202 232 8,500 1,500 Climbing FAA TRACON SMA TRACON (SMA)
03:06PM 39.7328 -75.1503 80° East 199 229 9,000 720 Climbing FAA TRACON SMA TRACON (SMA)
03:06PM 39.7378 -75.1275 74° East 218 251 9,000  Level FAA TRACON SMA TRACON (SMA)
03:06PM 39.7444 -75.0978 74° East 224 258 9,000  Level FAA TRACON SMA TRACON (SMA)
03:07PM 39.7500 -75.0697 76° East 243 280 9,000  Level FAA TRACON SMA TRACON (SMA)
03:07PM 39.7547 -75.0419 78° East 252 290 9,000  Level FAA TRACON SMA TRACON (SMA)
03:07PM 39.7594 -75.0064 80° East 260 299 9,000  Level FAA TRACON SMA TRACON (SMA)
03:08PM 39.7631 -74.9767 81° East 264 304 9,000  Level FAA TRACON SMA TRACON (SMA)
03:08PM 39.7664 -74.9475 82° East 265 305 9,000  Level FAA TRACON SMA TRACON (SMA)
03:08PM 39.7703 -74.9119 82° East 267 307 9,000  Level FAA TRACON SMA TRACON (SMA)
03:09PM 39.7733 -74.8806 83° East 270 311 9,000  Level FAA TRACON SMA TRACON (SMA)
03:09PM 39.7769 -74.8508 81° East 271 312 9,000  Level FAA TRACON SMA TRACON (SMA)
03:09PM 39.7831 -74.8136 78° East 272 313 9,000  Level FAA TRACON SMA TRACON (SMA)
03:10PM 39.7892 -74.7861 74° East 271 312 9,000  Level FAA TRACON SMA TRACON (SMA)
03:10PM 39.7933 -74.7547 80° East 272 313 9,000  Level FAA TRACON SMA TRACON (SMA)
03:10PM 39.7975 -74.7169 82° East 273 314 9,000  Level FAA TRACON SMA TRACON (SMA)
03:11PM 39.8003 -74.6867 83° East 275 316 9,000  Level FAA TRACON SMA TRACON (SMA)
03:11PM 39.8019 -74.6567 86° East 272 313 9,000  Level FAA TRACON SMA TRACON (SMA)
03:11PM 39.8042 -74.6192 86° East 271 312 9,000  Level FAA TRACON SMA TRACON (SMA)
03:12PM 39.8064 -74.5889 85° East 272 313 9,000  Level FAA TRACON SMA TRACON (SMA)
03:12PM 39.8086 -74.5594 84° East 272 313 9,000  Level FAA TRACON SMA TRACON (SMA)
03:12PM 39.8117 -74.5211 84° East 273 314 9,000  Level FAA TRACON SMA TRACON (SMA)
03:13PM 39.8136 -74.4986 84° East 272 313 9,000  Level FAA TRACON SMA TRACON (SMA)
03:13PM 39.8172 -74.4606 83° East 274 315 9,000  Level FAA TRACON SMA TRACON (SMA)
03:13PM 39.8206 -74.4231 83° East 274 315 9,000  Level FAA TRACON SMA TRACON (SMA)
03:14PM 39.8219 -74.3922 87° East 274 315 9,000  Level FAA TRACON SMA TRACON (SMA)
03:14PM 39.8225 -74.3622 89° East 274 315 9,000  Level FAA TRACON SMA TRACON (SMA)
03:14PM 39.8225 -74.3539 90° East 274 315 9,000 840 Level FAA TRACON SMA TRACON (SMA)
03:14PM 39.8231 -74.3061 89° East 269 310 9,500 1,080 Climbing New York Center
03:15PM 39.8256 -74.2172 88° East 259 298 10,400 780 Climbing New York Center
03:17PM 39.8281 -74.1308 88° East 246 283 11,200 660 Climbing New York Center
03:17PM 39.8242 -74.0522 94° East 241 277 11,800 480 Climbing New York Center
03:19PM 39.8183 -73.9572 95° East 246 283 12,200 480 Climbing New York Center
03:20PM 39.8169 -73.8519 91° East 259 298 12,800 360 Climbing New York Center
03:20PM 39.8192 -73.7656 88° East 259 298 13,000 60 Climbing New York Center
03:21PM 39.8467 -73.6719 69° East 265 305 13,000  Level New York Center
03:22PM 39.9050 -73.5933 46° Northeast 265 305 13,000  Level New York Center
03:24PM 39.9672 -73.5172 43° Northeast 290 334 13,000 -300 Level New York Center
03:25PM 40.0897 -73.3650 44° Northeast 312 359 12,200 -660 Descending Boston Center
03:26PM 40.1531 -73.2708 49° Northeast 328 377 11,200 -1,200 Descending Boston Center
03:27PM 40.2203 -73.1900 43° Northeast 328 377 9,900 -1,080 Descending Boston Center
03:28PM 40.2872 -73.1228 37° Northeast 318 366 9,100 -420 Descending Boston Center
03:29PM 40.3461 -73.0556 41° Northeast 296 341 9,100  Level Boston Center
03:30PM 40.3964 -72.9797 49° Northeast 276 318 9,100 -660 Level Boston Center
03:33PM 40.5333 -72.8333 39° Northeast 245 282 7,100 -780 Descending New York TRACON
03:34PM 40.5667 -72.8333 360° North 214 246 6,600 -1,200 Descending New York TRACON
03:35PM 40.6167 -72.9000 315° West 189 217 4,700 -1,560 Descending New York TRACON
03:36PM 40.6667 -72.9333 333° Northwest 182 209 3,400 -1,320 Descending New York TRACON
03:37PM 40.7000 -72.9667 323° Northwest 180 207 2,100 -900 Descending New York TRACON
03:38PM 40.7333 -73.0167 311° West 151 174 1,700 -420 Descending New York TRACON